createdAt,value
2018-03-02T00:00:08.114Z,97720.69
2018-03-02T00:02:39.225Z,97721.03
2018-03-02T00:05:11.233Z,97723.77
2018-03-02T00:07:43.418Z,97717.46
2018-03-02T00:10:15.247Z,97715.27
2018-03-02T00:12:46.733Z,97718.44
2018-03-02T00:15:28.352Z,97709.76
2018-03-02T00:18:01.211Z,97711.31
2018-03-02T00:20:32.680Z,97705.22
2018-03-02T00:23:04.608Z,97713.54
2018-03-02T00:25:38.989Z,97707.73
2018-03-02T00:28:10.684Z,97710.33
2018-03-02T00:30:42.709Z,97707.55
2018-03-02T00:33:14.545Z,97708.91
2018-03-02T00:35:46.250Z,97711.74
2018-03-02T00:38:18.045Z,97709.44
2018-03-02T00:40:49.725Z,97700.05
2018-03-02T00:43:21.889Z,97698.11
2018-03-02T00:45:53.457Z,97700.27
2018-03-02T00:48:25.369Z,97698.33
2018-03-02T00:50:57.719Z,97701.77
2018-03-02T00:53:29.805Z,97694.73
2018-03-02T00:56:01.895Z,97698.66
2018-03-02T00:58:34.108Z,97687.11
2018-03-02T01:01:05.724Z,97681.94
2018-03-02T01:03:37.287Z,97683.25
2018-03-02T01:06:09.168Z,97683.06
2018-03-02T01:08:40.641Z,97683.28
2018-03-02T01:11:12.569Z,97679.37
2018-03-02T01:13:44.088Z,97677.94
2018-03-02T01:16:16.209Z,97675.70
2018-03-02T01:18:48.093Z,97672.39
2018-03-02T01:21:20.297Z,97667.22
2018-03-02T01:23:51.863Z,97660.53
2018-03-02T01:26:23.509Z,97651.96
2018-03-02T01:28:55.414Z,97650.88
2018-03-02T01:31:27.284Z,97648.29
2018-03-02T01:34:00.278Z,97649.45
2018-03-02T01:36:31.928Z,97643.41
2018-03-02T01:39:05.855Z,97642.27
2018-03-02T01:41:38.179Z,97637.95
2018-03-02T01:44:10.136Z,97639.70
2018-03-02T01:46:42.118Z,97636.94
2018-03-02T01:49:14.269Z,97624.45
2018-03-02T01:51:51.413Z,97625.59
2018-03-02T01:54:22.900Z,97621.84
2018-03-02T01:56:54.772Z,97618.58
2018-03-02T01:59:26.892Z,97616.77
2018-03-02T02:01:59.938Z,97617.91
2018-03-02T02:04:31.560Z,97617.08
2018-03-02T02:07:03.478Z,97617.48
2018-03-02T02:09:35.637Z,97608.16
2018-03-02T02:12:07.338Z,97607.13
2018-03-02T02:14:38.845Z,97600.82
2018-03-02T02:17:10.427Z,97601.34
2018-03-02T02:19:42.729Z,97590.80
2018-03-02T02:22:14.527Z,97592.91
2018-03-02T02:24:46.576Z,97588.45
2018-03-02T02:27:18.580Z,97584.14
2018-03-02T02:29:50.316Z,97585.44
2018-03-02T02:32:22.600Z,97586.71
2018-03-02T02:34:54.567Z,97576.63
2018-03-02T02:37:28.776Z,97572.36
2018-03-02T02:40:02.000Z,97566.72
2018-03-02T02:42:33.940Z,97567.83
2018-03-02T02:45:05.745Z,97566.47
2018-03-02T02:47:37.329Z,97572.24
2018-03-02T02:50:09.271Z,97571.94
2018-03-02T02:52:40.820Z,97574.09
2018-03-02T02:55:13.018Z,97575.08
2018-03-02T02:57:44.638Z,97572.06
2018-03-02T03:00:16.328Z,97561.27
2018-03-02T03:02:47.933Z,97562.00
2018-03-02T03:05:19.075Z,97561.58
2018-03-02T03:07:50.872Z,97559.17
2018-03-02T03:10:21.944Z,97556.38
2018-03-02T03:12:53.924Z,97560.84
2018-03-02T03:15:25.753Z,97564.36
2018-03-02T03:17:57.357Z,97563.46
2018-03-02T03:20:29.017Z,97557.13
2018-03-02T03:23:02.146Z,97559.27
2018-03-02T03:25:33.245Z,97552.50
2018-03-02T03:28:04.958Z,97553.47
2018-03-02T03:30:37.023Z,97551.55
2018-03-02T03:33:08.512Z,97547.59
2018-03-02T03:35:40.159Z,97543.94
2018-03-02T03:38:11.573Z,97539.94
2018-03-02T03:40:46.900Z,97536.44
2018-03-02T03:46:04.912Z,97530.19
2018-03-02T03:48:36.637Z,97534.96
2018-03-02T03:51:08.471Z,97531.16
2018-03-02T03:53:40.309Z,97534.51
2018-03-02T03:56:12.281Z,97536.91
2018-03-02T03:58:43.865Z,97536.94
2018-03-02T04:01:15.840Z,97543.16
2018-03-02T04:03:47.656Z,97534.49
2018-03-02T04:06:19.529Z,97531.05
2018-03-02T04:08:55.770Z,97526.67
2018-03-02T04:11:27.569Z,97525.99
2018-03-02T04:14:00.231Z,97518.89
2018-03-02T04:16:31.848Z,97513.81
2018-03-02T04:19:04.821Z,97519.83
2018-03-02T04:21:36.860Z,97510.54
2018-03-02T04:24:08.464Z,97508.60
2018-03-02T04:26:40.200Z,97512.69
2018-03-02T04:29:12.368Z,97515.81
2018-03-02T04:31:43.813Z,97506.56
2018-03-02T04:34:15.673Z,97507.95
2018-03-02T04:36:47.328Z,97512.50
2018-03-02T04:39:19.148Z,97516.47
2018-03-02T04:41:50.870Z,97512.45
2018-03-02T04:44:22.688Z,97509.30
2018-03-02T04:46:54.757Z,97498.37
2018-03-02T04:49:26.538Z,97495.95
2018-03-02T04:51:58.061Z,97494.34
2018-03-02T04:54:30.194Z,97494.64
2018-03-02T04:57:03.268Z,97485.64
2018-03-02T04:59:35.212Z,97486.28
2018-03-02T05:02:06.509Z,97487.40
2018-03-02T05:04:37.992Z,97485.59
2018-03-02T05:07:09.858Z,97485.94
2018-03-02T05:09:45.829Z,97477.92
2018-03-02T05:12:16.952Z,97474.31
2018-03-02T05:14:58.579Z,97472.45
2018-03-02T05:17:31.538Z,97466.38
2018-03-02T05:20:04.040Z,97463.61
2018-03-02T05:22:35.778Z,97464.28
2018-03-02T05:25:07.670Z,97458.65
2018-03-02T05:27:39.348Z,97452.74
2018-03-02T05:30:10.684Z,97449.89
2018-03-02T05:32:42.648Z,97446.01
2018-03-02T05:35:14.124Z,97446.31
2018-03-02T05:37:45.892Z,97435.74
2018-03-02T05:40:17.751Z,97442.33
2018-03-02T05:42:49.576Z,97438.02
2018-03-02T05:45:21.346Z,97441.55
2018-03-02T05:47:53.176Z,97438.64
2018-03-02T05:50:24.860Z,97429.05
2018-03-02T05:52:56.502Z,97427.06
2018-03-02T05:55:28.465Z,97425.23
2018-03-02T05:58:02.382Z,97436.45
2018-03-02T06:00:34.588Z,97423.29
2018-03-02T06:03:05.973Z,97426.66
2018-03-02T06:05:37.023Z,97423.66
2018-03-02T06:08:08.992Z,97423.37
2018-03-02T06:10:40.048Z,97426.13
2018-03-02T06:13:11.278Z,97440.51
2018-03-02T06:15:42.708Z,97441.91
2018-03-02T06:18:13.875Z,97431.59
2018-03-02T06:20:45.016Z,97433.64
2018-03-02T06:23:16.491Z,97429.64
2018-03-02T06:25:47.545Z,97421.33
2018-03-02T06:28:18.748Z,97417.48
2018-03-02T06:30:50.249Z,97422.07
2018-03-02T06:33:21.813Z,97424.87
2018-03-02T06:35:53.856Z,97420.27
2018-03-02T06:38:24.908Z,97412.59
2018-03-02T06:40:55.975Z,97415.92
2018-03-02T06:43:27.427Z,97420.62
2018-03-02T06:46:00.193Z,97422.72
2018-03-02T06:48:31.914Z,97412.17
2018-03-02T06:51:04.588Z,97410.05
2018-03-02T06:53:35.993Z,97410.30
2018-03-02T06:56:07.154Z,97407.77
2018-03-02T06:58:38.844Z,97405.52
2018-03-02T07:01:10.922Z,97409.13
2018-03-02T07:03:42.849Z,97409.98
2018-03-02T07:06:14.969Z,97404.45
2018-03-02T07:08:47.096Z,97395.66
2018-03-02T07:11:18.210Z,97398.30
2018-03-02T07:13:49.737Z,97393.78
2018-03-02T07:16:21.065Z,97392.05
2018-03-02T07:18:52.395Z,97391.62
2018-03-02T07:21:24.037Z,97387.91
2018-03-02T07:23:55.822Z,97380.41
2018-03-02T07:26:27.297Z,97377.31
2018-03-02T07:28:59.106Z,97367.66
2018-03-02T07:31:30.978Z,97372.47
2018-03-02T07:34:03.668Z,97363.80
2018-03-02T07:36:36.112Z,97355.97
2018-03-02T07:39:08.108Z,97363.20
2018-03-02T07:41:39.817Z,97355.36
2018-03-02T07:44:11.631Z,97357.70
2018-03-02T07:46:43.046Z,97354.42
2018-03-02T07:49:15.102Z,97348.12
2018-03-02T07:51:47.075Z,97350.69
2018-03-02T07:54:19.281Z,97350.02
2018-03-02T07:56:50.928Z,97344.34
2018-03-02T07:59:23.092Z,97343.85
2018-03-02T08:01:55.098Z,97336.70
2018-03-02T08:04:26.307Z,97334.14
2018-03-02T08:06:58.103Z,97331.59
2018-03-02T08:09:29.857Z,97337.50
2018-03-02T08:12:02.337Z,97334.72
2018-03-02T08:14:34.330Z,97334.07
2018-03-02T08:17:05.949Z,97330.75
2018-03-02T08:19:38.035Z,97323.56
2018-03-02T08:22:10.064Z,97326.12
2018-03-02T08:24:41.142Z,97322.84
2018-03-02T08:27:12.584Z,97324.88
2018-03-02T08:29:43.801Z,97327.26
2018-03-02T08:32:15.004Z,97324.17
2018-03-02T08:34:46.333Z,97330.62
2018-03-02T08:37:17.984Z,97324.63
2018-03-02T08:39:49.293Z,97335.00
2018-03-02T08:42:20.896Z,97334.84
2018-03-02T08:44:52.308Z,97334.70
2018-03-02T08:47:24.103Z,97329.05
2018-03-02T08:49:55.431Z,97323.31
2018-03-02T08:52:26.724Z,97324.88
2018-03-02T08:54:58.728Z,97325.25
2018-03-02T08:57:29.868Z,97319.88
2018-03-02T09:00:01.200Z,97312.28
2018-03-02T09:02:32.799Z,97313.81
2018-03-02T09:05:04.634Z,97303.80
2018-03-02T09:07:36.180Z,97303.50
2018-03-02T09:10:07.554Z,97296.05
2018-03-02T09:12:38.816Z,97298.80
2018-03-02T09:15:10.681Z,97291.09
2018-03-02T09:17:41.810Z,97291.11
2018-03-02T09:20:12.924Z,97275.78
2018-03-02T09:22:44.312Z,97277.55
2018-03-02T09:25:15.474Z,97271.00
2018-03-02T09:27:47.049Z,97269.72
2018-03-02T09:30:18.124Z,97260.56
2018-03-02T09:32:49.590Z,97256.36
2018-03-02T09:35:21.237Z,97256.19
2018-03-02T09:37:52.509Z,97248.48
2018-03-02T09:40:24.020Z,97247.03
2018-03-02T09:42:55.783Z,97243.75
2018-03-02T09:45:27.645Z,97239.97
2018-03-02T09:47:59.064Z,97232.48
2018-03-02T09:50:30.508Z,97229.45
2018-03-02T09:53:04.126Z,97229.52
2018-03-02T09:55:35.237Z,97224.41
2018-03-02T09:58:07.353Z,97223.88
2018-03-02T10:00:38.841Z,97227.77
2018-03-02T10:03:10.576Z,97216.20
2018-03-02T10:05:41.918Z,97217.33
2018-03-02T10:08:12.993Z,97215.73
2018-03-02T10:10:44.134Z,97213.94
2018-03-02T10:13:15.476Z,97202.95
2018-03-02T10:15:46.632Z,97202.39
2018-03-02T10:18:17.932Z,97196.86
2018-03-02T10:20:49.325Z,97198.13
2018-03-02T10:23:20.437Z,97195.52
2018-03-02T10:25:51.637Z,97193.77
2018-03-02T10:28:23.717Z,97192.80
2018-03-02T10:30:55.225Z,97187.08
2018-03-02T10:33:26.593Z,97191.30
2018-03-02T10:35:58.067Z,97189.11
2018-03-02T10:38:29.144Z,97182.39
2018-03-02T10:41:02.092Z,97181.75
2018-03-02T10:43:33.175Z,97182.75
2018-03-02T10:46:04.300Z,97177.51
2018-03-02T10:48:35.889Z,97174.77
2018-03-02T10:51:07.317Z,97174.83
2018-03-02T10:53:38.406Z,97175.89
2018-03-02T10:56:09.818Z,97173.39
2018-03-02T10:58:41.197Z,97172.28
2018-03-02T11:01:13.440Z,97167.42
2018-03-02T11:03:49.018Z,97160.13
2018-03-02T11:06:20.893Z,97161.70
2018-03-02T11:08:51.989Z,97171.58
2018-03-02T11:11:23.067Z,97166.17
2018-03-02T11:13:54.217Z,97162.65
2018-03-02T11:16:25.629Z,97162.45
2018-03-02T11:18:56.760Z,97157.86
2018-03-02T11:21:28.326Z,97154.83
2018-03-02T11:23:59.461Z,97159.49
2018-03-02T11:26:31.518Z,97146.94
2018-03-02T11:29:03.549Z,97146.88
2018-03-02T11:31:34.960Z,97148.95
2018-03-02T11:34:06.056Z,97143.22
2018-03-02T11:36:37.445Z,97148.28
2018-03-02T11:39:08.270Z,97146.27
2018-03-02T11:41:39.152Z,97142.25
2018-03-02T11:44:11.106Z,97133.42
2018-03-02T11:46:42.179Z,97127.08
2018-03-02T11:49:13.237Z,97125.31
2018-03-02T11:51:47.057Z,97121.31
2018-03-02T11:54:18.532Z,97118.80
2018-03-02T11:56:49.603Z,97114.04
2018-03-02T11:59:23.505Z,97117.38
2018-03-02T12:01:54.329Z,97113.89
2018-03-02T12:04:26.320Z,97109.50
2018-03-02T12:06:57.504Z,97096.95
2018-03-02T12:09:28.864Z,97094.59
2018-03-02T12:12:00.580Z,97094.41
2018-03-02T12:14:32.116Z,97087.77
2018-03-02T12:17:04.265Z,97090.96
2018-03-02T12:19:36.233Z,97090.10
2018-03-02T12:22:07.752Z,97088.78
2018-03-02T12:24:38.812Z,97086.94
2018-03-02T12:27:10.336Z,97092.53
2018-03-02T12:29:42.501Z,97087.30
2018-03-02T12:32:13.653Z,97091.64
2018-03-02T12:34:44.776Z,97084.39
2018-03-02T12:37:17.712Z,97083.19
2018-03-02T12:39:48.820Z,97083.72
2018-03-02T12:42:20.744Z,97078.84
2018-03-02T12:44:52.171Z,97073.20
2018-03-02T12:47:25.099Z,97077.99
2018-03-02T12:49:55.921Z,97073.56
2018-03-02T12:52:27.052Z,97070.71
2018-03-02T12:54:57.887Z,97065.91
2018-03-02T12:57:28.767Z,97060.95
2018-03-02T13:00:00.901Z,97065.97
2018-03-02T13:02:31.837Z,97065.59
2018-03-02T13:05:03.032Z,97064.97
2018-03-02T13:07:33.928Z,97065.48
2018-03-02T13:10:05.102Z,97056.13
2018-03-02T13:12:36.217Z,97059.87
2018-03-02T13:15:07.089Z,97060.86
2018-03-02T13:17:37.855Z,97057.84
2018-03-02T13:20:08.825Z,97061.09
2018-03-02T13:22:42.448Z,97054.09
2018-03-02T13:25:13.324Z,97060.84
2018-03-02T13:27:54.238Z,97059.70
2018-03-02T13:30:26.170Z,97058.86
2018-03-02T13:33:05.292Z,97057.50
2018-03-02T13:35:36.538Z,97054.09
2018-03-02T13:38:07.473Z,97054.61
2018-03-02T13:42:52.196Z,97057.20
2018-03-02T13:45:23.010Z,97059.12
2018-03-02T13:48:02.125Z,97067.00
2018-03-02T13:50:33.344Z,97065.26
2018-03-02T13:53:04.157Z,97076.52
2018-03-02T13:55:34.917Z,97068.33
2018-03-02T13:58:06.933Z,97056.15
2018-03-02T14:00:37.809Z,97058.26
2018-03-02T14:05:15.013Z,97055.30
2018-03-02T14:07:45.842Z,97050.87
2018-03-02T14:10:16.712Z,97055.82
2018-03-02T14:12:47.765Z,97054.55
2018-03-02T14:15:18.569Z,97054.27
2018-03-02T14:17:49.677Z,97054.80
2018-03-02T14:20:20.776Z,97046.86
2018-03-02T14:22:51.628Z,97047.17
2018-03-02T14:25:22.906Z,97048.04
2018-03-02T14:27:53.989Z,97036.05
2018-03-02T14:30:24.809Z,97048.12
2018-03-02T14:32:58.927Z,97043.23
2018-03-02T14:35:30.214Z,97041.51
2018-03-02T14:38:01.420Z,97041.77
2018-03-02T14:40:32.502Z,97046.30
2018-03-02T14:43:03.268Z,97049.05
2018-03-02T14:45:34.061Z,97046.69
2018-03-02T14:48:04.928Z,97051.53
2018-03-02T14:50:35.982Z,97057.88
2018-03-02T14:53:07.092Z,97050.42
2018-03-02T14:55:37.869Z,97056.01
2018-03-02T14:58:08.975Z,97059.70
2018-03-02T15:00:41.209Z,97066.92
2018-03-02T15:03:12.374Z,97065.87
2018-03-02T15:05:43.200Z,97059.45
2018-03-02T15:08:13.941Z,97058.44
2018-03-02T15:10:45.130Z,97064.01
2018-03-02T15:13:16.946Z,97063.37
2018-03-02T15:15:47.801Z,97067.20
2018-03-02T15:18:20.320Z,97072.33
2018-03-02T15:20:51.069Z,97065.41
2018-03-02T15:23:23.001Z,97068.27
2018-03-02T15:25:54.367Z,97072.28
2018-03-02T15:28:25.448Z,97071.32
2018-03-02T15:30:57.564Z,97078.25
2018-03-02T15:33:28.377Z,97073.13
2018-03-02T15:36:00.885Z,97088.50
2018-03-02T15:38:31.960Z,97093.97
2018-03-02T15:41:02.848Z,97084.74
2018-03-02T15:43:34.159Z,97090.42
2018-03-02T15:46:05.721Z,97099.10
2018-03-02T15:48:36.933Z,97102.45
2018-03-02T15:51:08.067Z,97102.34
2018-03-02T15:53:38.804Z,97107.70
2018-03-02T15:56:10.496Z,97102.59
2018-03-02T15:58:41.682Z,97114.42
2018-03-02T16:01:12.480Z,97107.55
2018-03-02T16:03:43.293Z,97108.27
2018-03-02T16:06:14.389Z,97110.40
2018-03-02T16:08:45.249Z,97101.88
2018-03-02T16:11:16.119Z,97115.28
2018-03-02T16:13:48.952Z,97116.38
2018-03-02T16:16:20.120Z,97118.98
2018-03-02T16:18:50.934Z,97124.73
2018-03-02T16:21:22.145Z,97129.23
2018-03-02T16:23:52.981Z,97130.52
2018-03-02T16:26:24.075Z,97138.14
2018-03-02T16:28:55.200Z,97136.48
2018-03-02T16:31:26.660Z,97148.80
2018-03-02T16:33:58.002Z,97147.69
2018-03-02T16:36:30.152Z,97149.65
2018-03-02T16:39:02.467Z,97151.75
2018-03-02T16:41:33.548Z,97150.77
2018-03-02T16:44:05.064Z,97161.83
2018-03-02T16:46:36.184Z,97163.39
2018-03-02T16:49:07.269Z,97169.61
2018-03-02T16:51:38.813Z,97174.37
2018-03-02T16:54:10.733Z,97176.44
2018-03-02T16:56:42.280Z,97178.31
2018-03-02T16:59:13.356Z,97179.78
2018-03-02T17:01:44.497Z,97173.67
2018-03-02T17:04:20.429Z,97181.63
2018-03-02T17:06:51.556Z,97183.35
2018-03-02T17:09:22.933Z,97182.52
2018-03-02T17:11:54.062Z,97189.55
2018-03-02T17:14:25.144Z,97191.73
2018-03-02T17:17:01.751Z,97195.92
2018-03-02T17:19:32.975Z,97199.02
2018-03-02T17:22:05.147Z,97199.03
2018-03-02T17:24:36.260Z,97202.63
2018-03-02T17:27:07.428Z,97199.97
2018-03-02T17:29:38.840Z,97205.78
2018-03-02T17:32:09.972Z,97206.47
2018-03-02T17:34:41.120Z,97214.50
2018-03-02T17:37:38.564Z,97223.70
2018-03-02T17:40:11.925Z,97231.22
2018-03-02T17:42:43.138Z,97234.22
2018-03-02T17:45:14.587Z,97237.47
2018-03-02T17:47:45.720Z,97239.56
2018-03-02T17:50:17.945Z,97241.52
2018-03-02T17:52:49.098Z,97246.52
2018-03-02T17:55:20.273Z,97243.41
2018-03-02T17:57:51.995Z,97248.52
2018-03-02T18:00:23.110Z,97249.27
2018-03-02T18:02:55.429Z,97255.52
2018-03-02T18:05:26.848Z,97253.61
2018-03-02T18:07:59.652Z,97249.67
2018-03-02T18:10:32.656Z,97254.11
2018-03-02T18:13:05.010Z,97260.67
2018-03-02T18:15:36.141Z,97248.59
2018-03-02T18:18:07.557Z,97248.22
2018-03-02T18:20:38.792Z,97257.95
2018-03-02T18:23:10.217Z,97257.63
2018-03-02T18:25:41.364Z,97268.91
2018-03-02T18:28:12.504Z,97267.89
2018-03-02T18:30:43.931Z,97268.54
2018-03-02T18:33:15.069Z,97275.54
2018-03-02T18:35:54.967Z,97277.94
2018-03-02T18:38:26.428Z,97280.17
2018-03-02T18:40:58.422Z,97278.88
2018-03-02T18:43:29.593Z,97292.48
2018-03-02T18:46:01.164Z,97288.77
2018-03-02T18:48:32.244Z,97286.30
2018-03-02T18:51:03.688Z,97291.23
2018-03-02T18:53:34.789Z,97286.61
2018-03-02T18:56:06.360Z,97296.23
2018-03-02T18:58:37.892Z,97296.67
2018-03-02T19:01:09.498Z,97283.73
2018-03-02T19:03:40.577Z,97285.50
2018-03-02T19:06:12.432Z,97288.09
2018-03-02T19:08:43.581Z,97286.97
2018-03-02T19:11:15.083Z,97283.12
2018-03-02T19:13:46.640Z,97289.14
2018-03-02T19:16:17.700Z,97288.76
2018-03-02T19:18:49.288Z,97285.03
2018-03-02T19:21:20.565Z,97281.77
2018-03-02T19:23:51.661Z,97278.20
2018-03-02T19:26:23.089Z,97272.09
2018-03-02T19:28:54.209Z,97263.58
2018-03-02T19:31:25.356Z,97267.95
2018-03-02T19:33:56.448Z,97271.64
2018-03-02T19:36:27.966Z,97269.12
2018-03-02T19:38:59.389Z,97274.83
2018-03-02T19:41:30.491Z,97265.45
2018-03-02T19:44:02.877Z,97257.34
2018-03-02T19:46:34.000Z,97267.05
2018-03-02T19:49:06.184Z,97269.60
2018-03-02T19:51:38.033Z,97271.36
2018-03-02T19:54:09.160Z,97276.77
2018-03-02T19:56:40.313Z,97277.98
2018-03-02T19:59:11.516Z,97286.05
2018-03-02T20:01:42.693Z,97292.98
2018-03-02T20:04:18.668Z,97296.42
2018-03-02T20:06:49.841Z,97300.00
2018-03-02T20:09:21.170Z,97302.34
2018-03-02T20:11:59.544Z,97293.94
2018-03-02T20:14:31.244Z,97296.46
2018-03-02T20:17:03.641Z,97301.88
2018-03-02T20:19:34.837Z,97291.48
2018-03-02T20:22:06.236Z,97292.94
2018-03-02T20:24:37.392Z,97292.95
2018-03-02T20:27:08.495Z,97299.47
2018-03-02T20:29:39.973Z,97290.22
2018-03-02T20:32:11.089Z,97296.16
2018-03-02T20:34:42.475Z,97294.31
2018-03-02T20:37:14.034Z,97293.98
2018-03-02T20:39:45.620Z,97294.81
2018-03-02T20:42:17.696Z,97307.02
2018-03-02T20:44:48.869Z,97296.86
2018-03-02T20:47:21.871Z,97295.20
2018-03-02T20:49:56.228Z,97289.55
2018-03-02T20:52:27.405Z,97290.89
2018-03-02T20:54:59.428Z,97290.41
2018-03-02T20:57:30.586Z,97297.70
2018-03-02T21:00:02.598Z,97291.21
2018-03-02T21:02:34.124Z,97287.92
2018-03-02T21:05:05.434Z,97287.38
2018-03-02T21:07:36.839Z,97284.00
2018-03-02T21:10:09.008Z,97281.98
2018-03-02T21:12:40.193Z,97279.48
2018-03-02T21:15:12.165Z,97280.09
2018-03-02T21:17:43.890Z,97274.09
2018-03-02T21:20:25.678Z,97273.09
2018-03-02T21:22:57.158Z,97271.95
2018-03-02T21:25:28.349Z,97274.96
2018-03-02T21:27:59.508Z,97275.38
2018-03-02T21:30:31.061Z,97271.53
2018-03-02T21:33:04.921Z,97270.98
2018-03-02T21:35:36.072Z,97271.30
2018-03-02T21:38:07.613Z,97272.44
2018-03-02T21:40:38.818Z,97274.94
2018-03-02T21:43:10.436Z,97273.98
2018-03-02T21:45:45.507Z,97271.36
2018-03-02T21:48:18.044Z,97274.50
2018-03-02T21:50:50.621Z,97274.14
2018-03-02T21:53:21.716Z,97275.66
2018-03-02T21:55:53.177Z,97273.80
2018-03-02T21:58:24.292Z,97273.35
2018-03-02T22:00:55.780Z,97275.05
2018-03-02T22:03:27.880Z,97277.28
2018-03-02T22:05:59.025Z,97275.70
2018-03-02T22:08:30.180Z,97275.17
2018-03-02T22:11:03.317Z,97272.71
2018-03-02T22:13:34.377Z,97274.56
2018-03-02T22:16:05.796Z,97262.43
2018-03-02T22:18:36.869Z,97261.37
2018-03-02T22:21:07.933Z,97259.13
2018-03-02T22:23:39.565Z,97263.35
2018-03-02T22:26:11.981Z,97268.83
2018-03-02T22:28:43.412Z,97268.41
2018-03-02T22:31:14.473Z,97270.61
2018-03-02T22:33:45.640Z,97264.72
2018-03-02T22:36:17.026Z,97268.92
2018-03-02T22:38:48.576Z,97266.92
2018-03-02T22:41:19.866Z,97272.25
2018-03-02T22:43:51.272Z,97271.94
2018-03-02T22:46:22.400Z,97274.80
2018-03-02T22:48:54.046Z,97275.98
2018-03-02T22:51:25.477Z,97280.87
2018-03-02T22:53:57.476Z,97278.64
2018-03-02T22:56:29.408Z,97274.45
2018-03-02T22:59:01.318Z,97272.50
2018-03-02T23:01:32.496Z,97281.56
2018-03-02T23:04:05.159Z,97279.67
2018-03-02T23:06:36.952Z,97282.87
2018-03-02T23:09:09.311Z,97278.63
2018-03-02T23:11:40.384Z,97285.38
2018-03-02T23:14:11.496Z,97285.41
2018-03-02T23:16:42.995Z,97287.17
2018-03-02T23:19:14.762Z,97284.57
2018-03-02T23:21:47.536Z,97283.55
2018-03-02T23:24:18.854Z,97279.70
2018-03-02T23:26:51.103Z,97275.90
2018-03-02T23:29:22.248Z,97275.33
2018-03-02T23:31:53.615Z,97281.72
2018-03-02T23:34:24.648Z,97283.36
2018-03-02T23:36:56.992Z,97280.61
2018-03-02T23:39:28.450Z,97278.30
2018-03-02T23:42:03.293Z,97273.09
2018-03-02T23:44:34.924Z,97288.20
2018-03-02T23:47:06.235Z,97283.62
2018-03-02T23:49:38.212Z,97288.58
2018-03-02T23:52:09.604Z,97282.06
2018-03-02T23:54:40.729Z,97282.63
2018-03-02T23:57:12.864Z,97282.44
2018-03-02T23:59:44.010Z,97292.43
